sensor_id;sensor_type;location;lat;lon;timestamp;pressure;altitude;pressure_sealevel;temperature;humidity
64354;BME280;50681;53.334;-6.536;2023-12-07T00:02:09;99472.16;;;14.32;100.00
64354;BME280;50681;53.334;-6.536;2023-12-07T00:04:35;99474.41;;;14.30;100.00
64354;BME280;50681;53.334;-6.536;2023-12-07T00:07:01;99472.25;;;14.23;100.00
64354;BME280;50681;53.334;-6.536;2023-12-07T00:09:26;99471.34;;;14.19;100.00
64354;BME280;50681;53.334;-6.536;2023-12-07T00:11:52;99477.38;;;14.00;100.00
64354;BME280;50681;53.334;-6.536;2023-12-07T00:14:18;99467.75;;;14.15;100.00
64354;BME280;50681;53.334;-6.536;2023-12-07T00:16:43;99468.78;;;14.10;100.00
64354;BME280;50681;53.334;-6.536;2023-12-07T00:19:09;99456.56;;;14.29;100.00
64354;BME280;50681;53.334;-6.536;2023-12-07T00:21:37;99439.91;;;14.05;100.00
64354;BME280;50681;53.334;-6.536;2023-12-07T00:24:03;99448.84;;;14.31;100.00
64354;BME280;50681;53.334;-6.536;2023-12-07T00:26:29;99436.63;;;14.37;100.00
64354;BME280;50681;53.334;-6.536;2023-12-07T00:28:55;99446.34;;;14.38;100.00
64354;BME280;50681;53.334;-6.536;2023-12-07T00:31:21;99435.50;;;14.25;100.00
64354;BME280;50681;53.334;-6.536;2023-12-07T00:33:47;99428.38;;;14.21;100.00
64354;BME280;50681;53.334;-6.536;2023-12-07T00:36:12;99445.47;;;14.21;100.00
64354;BME280;50681;53.334;-6.536;2023-12-07T00:38:38;99429.72;;;14.39;100.00
64354;BME280;50681;53.334;-6.536;2023-12-07T00:41:04;99412.63;;;14.39;100.00
64354;BME280;50681;53.334;-6.536;2023-12-07T00:43:29;99403.16;;;14.33;100.00
64354;BME280;50681;53.334;-6.536;2023-12-07T00:45:58;99390.09;;;14.38;100.00
64354;BME280;50681;53.334;-6.536;2023-12-07T00:48:23;99380.09;;;14.14;100.00
64354;BME280;50681;53.334;-6.536;2023-12-07T00:50:48;99373.13;;;14.41;100.00
64354;BME280;50681;53.334;-6.536;2023-12-07T00:53:16;99359.25;;;14.31;100.00
64354;BME280;50681;53.334;-6.536;2023-12-07T00:55:42;99371.44;;;14.37;100.00
64354;BME280;50681;53.334;-6.536;2023-12-07T00:58:10;99352.25;;;14.30;100.00
64354;BME280;50681;53.334;-6.536;2023-12-07T01:00:39;99370.66;;;14.36;100.00
64354;BME280;50681;53.334;-6.536;2023-12-07T01:03:04;99346.47;;;14.19;100.00
64354;BME280;50681;53.334;-6.536;2023-12-07T01:05:30;99359.47;;;14.38;100.00
64354;BME280;50681;53.334;-6.536;2023-12-07T01:07:56;99355.03;;;14.33;100.00
64354;BME280;50681;53.334;-6.536;2023-12-07T01:10:21;99360.47;;;14.33;100.00
64354;BME280;50681;53.334;-6.536;2023-12-07T01:12:46;99353.38;;;14.29;100.00
64354;BME280;50681;53.334;-6.536;2023-12-07T01:15:12;99342.88;;;14.15;100.00
64354;BME280;50681;53.334;-6.536;2023-12-07T01:17:37;99363.09;;;14.30;100.00
64354;BME280;50681;53.334;-6.536;2023-12-07T01:20:05;99347.06;;;14.24;100.00
64354;BME280;50681;53.334;-6.536;2023-12-07T01:22:40;99335.56;;;14.03;100.00
64354;BME280;50681;53.334;-6.536;2023-12-07T01:25:11;99336.53;;;14.23;100.00
64354;BME280;50681;53.334;-6.536;2023-12-07T01:27:37;99333.16;;;14.14;100.00
64354;BME280;50681;53.334;-6.536;2023-12-07T01:30:04;99327.44;;;14.31;100.00
64354;BME280;50681;53.334;-6.536;2023-12-07T01:32:30;99322.16;;;14.22;100.00
64354;BME280;50681;53.334;-6.536;2023-12-07T01:34:55;99338.88;;;14.37;100.00
64354;BME280;50681;53.334;-6.536;2023-12-07T01:37:21;99309.44;;;13.98;100.00
64354;BME280;50681;53.334;-6.536;2023-12-07T01:39:46;99323.06;;;14.26;100.00
64354;BME280;50681;53.334;-6.536;2023-12-07T01:42:12;99321.69;;;14.33;100.00
64354;BME280;50681;53.334;-6.536;2023-12-07T01:44:38;99317.91;;;14.37;100.00
64354;BME280;50681;53.334;-6.536;2023-12-07T01:47:04;99322.78;;;14.73;100.00
64354;BME280;50681;53.334;-6.536;2023-12-07T01:49:30;99317.53;;;14.51;100.00
64354;BME280;50681;53.334;-6.536;2023-12-07T01:51:56;99313.06;;;14.43;100.00
64354;BME280;50681;53.334;-6.536;2023-12-07T01:54:22;99305.78;;;14.47;100.00
64354;BME280;50681;53.334;-6.536;2023-12-07T01:56:48;99304.06;;;14.55;100.00
64354;BME280;50681;53.334;-6.536;2023-12-07T01:59:14;99306.25;;;14.49;100.00
64354;BME280;50681;53.334;-6.536;2023-12-07T02:01:39;99292.03;;;14.40;100.00
64354;BME280;50681;53.334;-6.536;2023-12-07T02:04:05;99295.13;;;14.54;100.00
64354;BME280;50681;53.334;-6.536;2023-12-07T02:06:30;99286.59;;;14.40;100.00
64354;BME280;50681;53.334;-6.536;2023-12-07T02:08:56;99289.69;;;14.54;100.00
64354;BME280;50681;53.334;-6.536;2023-12-07T02:11:21;99287.50;;;14.60;100.00
64354;BME280;50681;53.334;-6.536;2023-12-07T02:13:47;99281.88;;;14.53;100.00
64354;BME280;50681;53.334;-6.536;2023-12-07T02:16:15;99271.97;;;14.73;100.00
64354;BME280;50681;53.334;-6.536;2023-12-07T02:18:51;99268.41;;;14.57;100.00
64354;BME280;50681;53.334;-6.536;2023-12-07T02:21:30;99266.13;;;14.59;100.00
64354;BME280;50681;53.334;-6.536;2023-12-07T02:24:06;99272.41;;;14.47;100.00
64354;BME280;50681;53.334;-6.536;2023-12-07T02:26:34;99272.78;;;14.61;100.00
64354;BME280;50681;53.334;-6.536;2023-12-07T02:29:01;99265.06;;;14.47;100.00
64354;BME280;50681;53.334;-6.536;2023-12-07T02:31:26;99267.78;;;14.92;100.00
64354;BME280;50681;53.334;-6.536;2023-12-07T02:33:52;99277.44;;;14.61;100.00
64354;BME280;50681;53.334;-6.536;2023-12-07T02:36:19;99258.19;;;14.82;100.00
64354;BME280;50681;53.334;-6.536;2023-12-07T02:38:47;99253.84;;;14.77;100.00
64354;BME280;50681;53.334;-6.536;2023-12-07T02:41:15;99250.94;;;14.70;100.00
64354;BME280;50681;53.334;-6.536;2023-12-07T02:43:41;99250.22;;;14.73;100.00
64354;BME280;50681;53.334;-6.536;2023-12-07T02:46:07;99239.72;;;14.88;100.00
64354;BME280;50681;53.334;-6.536;2023-12-07T02:48:32;99239.94;;;14.66;100.00
64354;BME280;50681;53.334;-6.536;2023-12-07T02:50:58;99241.72;;;14.75;100.00
64354;BME280;50681;53.334;-6.536;2023-12-07T02:53:23;99234.06;;;14.64;100.00
64354;BME280;50681;53.334;-6.536;2023-12-07T02:55:48;99229.97;;;14.70;100.00
64354;BME280;50681;53.334;-6.536;2023-12-07T02:58:14;99227.41;;;14.62;100.00
64354;BME280;50681;53.334;-6.536;2023-12-07T03:00:39;99234.28;;;14.72;100.00
64354;BME280;50681;53.334;-6.536;2023-12-07T03:03:05;99213.66;;;14.70;100.00
64354;BME280;50681;53.334;-6.536;2023-12-07T03:05:31;99205.81;;;14.81;100.00
64354;BME280;50681;53.334;-6.536;2023-12-07T03:07:56;99205.81;;;14.81;100.00
64354;BME280;50681;53.334;-6.536;2023-12-07T03:10:21;99199.56;;;14.81;100.00
64354;BME280;50681;53.334;-6.536;2023-12-07T03:12:47;99190.28;;;14.82;100.00
64354;BME280;50681;53.334;-6.536;2023-12-07T03:15:12;99190.09;;;14.91;100.00
64354;BME280;50681;53.334;-6.536;2023-12-07T03:17:38;99170.03;;;14.79;100.00
64354;BME280;50681;53.334;-6.536;2023-12-07T03:20:04;99179.22;;;14.75;100.00
64354;BME280;50681;53.334;-6.536;2023-12-07T03:22:30;99178.78;;;15.05;100.00
64354;BME280;50681;53.334;-6.536;2023-12-07T03:24:56;99177.06;;;14.80;100.00
64354;BME280;50681;53.334;-6.536;2023-12-07T03:27:21;99177.13;;;14.84;100.00
64354;BME280;50681;53.334;-6.536;2023-12-07T03:29:47;99172.94;;;14.87;100.00
64354;BME280;50681;53.334;-6.536;2023-12-07T03:32:12;99153.22;;;14.90;100.00
64354;BME280;50681;53.334;-6.536;2023-12-07T03:34:37;99160.44;;;15.02;100.00
64354;BME280;50681;53.334;-6.536;2023-12-07T03:37:03;99146.25;;;15.08;100.00
64354;BME280;50681;53.334;-6.536;2023-12-07T03:39:29;99138.53;;;14.94;100.00
64354;BME280;50681;53.334;-6.536;2023-12-07T03:41:56;99149.75;;;15.09;100.00
64354;BME280;50681;53.334;-6.536;2023-12-07T03:44:22;99139.13;;;15.20;100.00
64354;BME280;50681;53.334;-6.536;2023-12-07T03:46:47;99132.00;;;15.15;100.00
64354;BME280;50681;53.334;-6.536;2023-12-07T03:49:13;99133.53;;;15.12;100.00
64354;BME280;50681;53.334;-6.536;2023-12-07T03:51:38;99126.28;;;15.20;100.00
64354;BME280;50681;53.334;-6.536;2023-12-07T03:54:04;99128.53;;;15.14;100.00
64354;BME280;50681;53.334;-6.536;2023-12-07T03:56:32;99130.59;;;15.21;100.00
64354;BME280;50681;53.334;-6.536;2023-12-07T03:58:58;99132.56;;;15.05;100.00
64354;BME280;50681;53.334;-6.536;2023-12-07T04:01:28;99131.88;;;15.27;100.00
64354;BME280;50681;53.334;-6.536;2023-12-07T04:03:55;99121.94;;;15.16;100.00
64354;BME280;50681;53.334;-6.536;2023-12-07T04:06:22;99122.09;;;15.23;100.00
64354;BME280;50681;53.334;-6.536;2023-12-07T04:08:47;99120.53;;;15.22;100.00
64354;BME280;50681;53.334;-6.536;2023-12-07T04:11:14;99123.38;;;15.29;100.00
64354;BME280;50681;53.334;-6.536;2023-12-07T04:13:40;99125.03;;;15.34;100.00
64354;BME280;50681;53.334;-6.536;2023-12-07T04:16:10;99115.38;;;15.36;100.00
64354;BME280;50681;53.334;-6.536;2023-12-07T04:18:35;99111.53;;;15.37;100.00
64354;BME280;50681;53.334;-6.536;2023-12-07T04:21:01;99116.09;;;15.33;100.00
64354;BME280;50681;53.334;-6.536;2023-12-07T04:23:28;99107.38;;;15.43;100.00
64354;BME280;50681;53.334;-6.536;2023-12-07T04:25:53;99107.38;;;15.43;100.00
64354;BME280;50681;53.334;-6.536;2023-12-07T04:28:19;99112.38;;;15.41;100.00
64354;BME280;50681;53.334;-6.536;2023-12-07T04:30:45;99094.50;;;15.40;100.00
64354;BME280;50681;53.334;-6.536;2023-12-07T04:33:10;99083.31;;;15.46;100.00
64354;BME280;50681;53.334;-6.536;2023-12-07T04:35:36;99086.91;;;15.50;100.00
64354;BME280;50681;53.334;-6.536;2023-12-07T04:38:02;99088.41;;;15.47;100.00
64354;BME280;50681;53.334;-6.536;2023-12-07T04:40:27;99081.03;;;15.28;100.00
64354;BME280;50681;53.334;-6.536;2023-12-07T04:42:53;99067.13;;;15.13;100.00
64354;BME280;50681;53.334;-6.536;2023-12-07T04:45:18;99067.13;;;15.13;100.00
64354;BME280;50681;53.334;-6.536;2023-12-07T04:47:44;99065.25;;;14.98;100.00
64354;BME280;50681;53.334;-6.536;2023-12-07T04:50:10;99059.13;;;15.01;100.00
64354;BME280;50681;53.334;-6.536;2023-12-07T04:52:36;99054.94;;;14.88;100.00
64354;BME280;50681;53.334;-6.536;2023-12-07T04:55:01;99040.34;;;14.76;100.00
64354;BME280;50681;53.334;-6.536;2023-12-07T04:57:27;99052.06;;;14.80;100.00
64354;BME280;50681;53.334;-6.536;2023-12-07T04:59:52;99038.91;;;14.82;100.00
64354;BME280;50681;53.334;-6.536;2023-12-07T05:02:18;99033.63;;;14.90;100.00
64354;BME280;50681;53.334;-6.536;2023-12-07T05:04:44;99038.50;;;15.00;100.00
64354;BME280;50681;53.334;-6.536;2023-12-07T05:07:13;99030.06;;;15.05;100.00
64354;BME280;50681;53.334;-6.536;2023-12-07T05:09:39;99029.78;;;15.10;100.00
64354;BME280;50681;53.334;-6.536;2023-12-07T05:12:05;99023.13;;;15.08;100.00
64354;BME280;50681;53.334;-6.536;2023-12-07T05:14:32;99026.41;;;15.17;100.00
64354;BME280;50681;53.334;-6.536;2023-12-07T05:16:57;99043.69;;;15.25;100.00
64354;BME280;50681;53.334;-6.536;2023-12-07T05:19:23;99042.25;;;15.31;100.00
64354;BME280;50681;53.334;-6.536;2023-12-07T05:21:49;99030.22;;;15.12;100.00
64354;BME280;50681;53.334;-6.536;2023-12-07T05:24:15;99029.41;;;15.12;100.00
64354;BME280;50681;53.334;-6.536;2023-12-07T05:26:44;99028.06;;;15.22;100.00
64354;BME280;50681;53.334;-6.536;2023-12-07T05:29:12;99026.22;;;15.06;100.00
64354;BME280;50681;53.334;-6.536;2023-12-07T05:31:38;99029.78;;;15.10;100.00
64354;BME280;50681;53.334;-6.536;2023-12-07T05:34:04;99017.97;;;15.03;100.00
64354;BME280;50681;53.334;-6.536;2023-12-07T05:36:31;99025.41;;;15.06;100.00
64354;BME280;50681;53.334;-6.536;2023-12-07T05:38:56;99024.50;;;14.98;100.00
64354;BME280;50681;53.334;-6.536;2023-12-07T05:41:22;99019.19;;;15.05;100.00
64354;BME280;50681;53.334;-6.536;2023-12-07T05:43:47;99014.09;;;15.04;100.00
64354;BME280;50681;53.334;-6.536;2023-12-07T05:46:13;98998.16;;;14.82;100.00
64354;BME280;50681;53.334;-6.536;2023-12-07T05:48:38;98989.28;;;14.86;100.00
64354;BME280;50681;53.334;-6.536;2023-12-07T05:51:04;98968.28;;;14.82;100.00
64354;BME280;50681;53.334;-6.536;2023-12-07T05:53:30;98990.44;;;14.84;100.00
64354;BME280;50681;53.334;-6.536;2023-12-07T05:55:58;98970.13;;;14.78;100.00
64354;BME280;50681;53.334;-6.536;2023-12-07T05:58:23;98971.84;;;14.87;100.00
64354;BME280;50681;53.334;-6.536;2023-12-07T06:00:49;98976.41;;;14.82;100.00
64354;BME280;50681;53.334;-6.536;2023-12-07T06:03:14;98965.56;;;14.82;100.00
64354;BME280;50681;53.334;-6.536;2023-12-07T06:05:40;98954.81;;;14.90;100.00
64354;BME280;50681;53.334;-6.536;2023-12-07T06:08:06;98940.78;;;14.68;100.00
64354;BME280;50681;53.334;-6.536;2023-12-07T06:10:31;98936.06;;;14.65;100.00
64354;BME280;50681;53.334;-6.536;2023-12-07T06:12:57;98936.38;;;14.79;100.00
64354;BME280;50681;53.334;-6.536;2023-12-07T06:15:26;98939.44;;;14.78;100.00
64354;BME280;50681;53.334;-6.536;2023-12-07T06:17:51;98930.81;;;14.72;100.00
64354;BME280;50681;53.334;-6.536;2023-12-07T06:20:17;98926.13;;;14.73;100.00
64354;BME280;50681;53.334;-6.536;2023-12-07T06:22:42;98931.66;;;14.76;100.00
64354;BME280;50681;53.334;-6.536;2023-12-07T06:25:08;98930.53;;;14.61;100.00
64354;BME280;50681;53.334;-6.536;2023-12-07T06:27:35;98930.84;;;14.76;100.00
64354;BME280;50681;53.334;-6.536;2023-12-07T06:30:00;98919.22;;;14.75;100.00
64354;BME280;50681;53.334;-6.536;2023-12-07T06:32:26;98929.00;;;14.80;100.00
64354;BME280;50681;53.334;-6.536;2023-12-07T06:34:51;98924.56;;;14.91;100.00
64354;BME280;50681;53.334;-6.536;2023-12-07T06:37:17;98917.00;;;14.81;100.00
64354;BME280;50681;53.334;-6.536;2023-12-07T06:39:43;98921.66;;;15.00;100.00
64354;BME280;50681;53.334;-6.536;2023-12-07T06:42:08;98893.19;;;14.94;100.00
64354;BME280;50681;53.334;-6.536;2023-12-07T06:44:34;98902.47;;;14.93;100.00
64354;BME280;50681;53.334;-6.536;2023-12-07T06:47:01;98883.47;;;14.93;100.00
64354;BME280;50681;53.334;-6.536;2023-12-07T06:49:30;98886.75;;;15.02;100.00
64354;BME280;50681;53.334;-6.536;2023-12-07T06:51:55;98878.16;;;15.23;100.00
64354;BME280;50681;53.334;-6.536;2023-12-07T06:54:21;98876.59;;;15.22;100.00
64354;BME280;50681;53.334;-6.536;2023-12-07T06:56:47;98872.19;;;15.14;100.00
64354;BME280;50681;53.334;-6.536;2023-12-07T06:59:12;98863.38;;;15.21;100.00
64354;BME280;50681;53.334;-6.536;2023-12-07T07:01:38;98856.25;;;15.12;100.00
64354;BME280;50681;53.334;-6.536;2023-12-07T07:04:03;98857.09;;;15.17;100.00
64354;BME280;50681;53.334;-6.536;2023-12-07T07:06:29;98848.25;;;15.23;100.00
64354;BME280;50681;53.334;-6.536;2023-12-07T07:08:54;98841.63;;;15.21;100.00
64354;BME280;50681;53.334;-6.536;2023-12-07T07:11:20;98847.53;;;15.26;100.00
64354;BME280;50681;53.334;-6.536;2023-12-07T07:13:45;98836.19;;;15.21;100.00
64354;BME280;50681;53.334;-6.536;2023-12-07T07:16:11;98845.91;;;15.22;100.00
64354;BME280;50681;53.334;-6.536;2023-12-07T07:18:39;98853.63;;;15.43;100.00
64354;BME280;50681;53.334;-6.536;2023-12-07T07:21:06;98851.47;;;15.29;100.00
64354;BME280;50681;53.334;-6.536;2023-12-07T07:23:31;98844.22;;;15.60;100.00
64354;BME280;50681;53.334;-6.536;2023-12-07T07:25:57;98833.91;;;15.23;100.00
64354;BME280;50681;53.334;-6.536;2023-12-07T07:28:22;98834.38;;;15.28;100.00
64354;BME280;50681;53.334;-6.536;2023-12-07T07:30:47;98834.44;;;15.32;100.00
64354;BME280;50681;53.334;-6.536;2023-12-07T07:33:13;98834.97;;;15.41;100.00
64354;BME280;50681;53.334;-6.536;2023-12-07T07:35:38;98836.59;;;15.46;100.00
64354;BME280;50681;53.334;-6.536;2023-12-07T07:38:04;98840.66;;;15.56;100.00
64354;BME280;50681;53.334;-6.536;2023-12-07T07:40:29;98835.94;;;15.53;100.00
64354;BME280;50681;53.334;-6.536;2023-12-07T07:42:54;98828.31;;;15.62;100.00
64354;BME280;50681;53.334;-6.536;2023-12-07T07:45:20;98839.72;;;15.71;100.00
64354;BME280;50681;53.334;-6.536;2023-12-07T07:47:45;98834.63;;;15.70;100.00
64354;BME280;50681;53.334;-6.536;2023-12-07T07:50:11;98833.13;;;15.72;100.00
64354;BME280;50681;53.334;-6.536;2023-12-07T07:52:37;98827.56;;;15.65;100.00
64354;BME280;50681;53.334;-6.536;2023-12-07T07:55:05;98819.13;;;15.74;100.00
64354;BME280;50681;53.334;-6.536;2023-12-07T07:57:31;98801.97;;;15.70;100.00
64354;BME280;50681;53.334;-6.536;2023-12-07T07:59:57;98798.28;;;15.55;100.00
64354;BME280;50681;53.334;-6.536;2023-12-07T08:02:23;98797.84;;;15.53;100.00
64354;BME280;50681;53.334;-6.536;2023-12-07T08:04:48;98790.84;;;15.52;100.00
64354;BME280;50681;53.334;-6.536;2023-12-07T08:07:14;98778.19;;;15.63;100.00
64354;BME280;50681;53.334;-6.536;2023-12-07T08:09:40;98779.22;;;15.55;100.00
64354;BME280;50681;53.334;-6.536;2023-12-07T08:12:06;98772.22;;;15.54;100.00
64354;BME280;50681;53.334;-6.536;2023-12-07T08:14:35;98770.44;;;15.65;100.00
64354;BME280;50681;53.334;-6.536;2023-12-07T08:17:00;98749.63;;;15.50;100.00
64354;BME280;50681;53.334;-6.536;2023-12-07T08:19:26;98749.22;;;15.48;100.00
64354;BME280;50681;53.334;-6.536;2023-12-07T08:21:51;98742.19;;;15.73;100.00
64354;BME280;50681;53.334;-6.536;2023-12-07T08:24:17;98743.44;;;15.80;100.00
64354;BME280;50681;53.334;-6.536;2023-12-07T08:26:42;98752.28;;;15.73;100.00
64354;BME280;50681;53.334;-6.536;2023-12-07T08:29:08;98754.63;;;15.75;100.00
64354;BME280;50681;53.334;-6.536;2023-12-07T08:31:33;98755.50;;;15.82;100.00
64354;BME280;50681;53.334;-6.536;2023-12-07T08:33:59;98759.78;;;15.83;100.00
64354;BME280;50681;53.334;-6.536;2023-12-07T08:36:26;98758.03;;;15.95;100.00
64354;BME280;50681;53.334;-6.536;2023-12-07T08:38:51;98755.66;;;15.93;100.00
64354;BME280;50681;53.334;-6.536;2023-12-07T08:41:17;98763.81;;;15.93;100.00
64354;BME280;50681;53.334;-6.536;2023-12-07T08:43:43;98751.38;;;15.92;100.00
64354;BME280;50681;53.334;-6.536;2023-12-07T08:46:09;98768.03;;;15.87;100.00
64354;BME280;50681;53.334;-6.536;2023-12-07T08:48:36;98749.56;;;16.04;100.00
64354;BME280;50681;53.334;-6.536;2023-12-07T08:51:03;98761.34;;;16.11;100.00
64354;BME280;50681;53.334;-6.536;2023-12-07T08:53:29;98745.41;;;16.13;100.00
64354;BME280;50681;53.334;-6.536;2023-12-07T08:55:54;98760.63;;;16.18;100.00
64354;BME280;50681;53.334;-6.536;2023-12-07T08:58:20;98743.38;;;16.07;100.00
64354;BME280;50681;53.334;-6.536;2023-12-07T09:00:46;98747.25;;;16.06;100.00
64354;BME280;50681;53.334;-6.536;2023-12-07T09:03:12;98760.53;;;16.11;100.00
64354;BME280;50681;53.334;-6.536;2023-12-07T09:05:37;98752.69;;;16.06;100.00
64354;BME280;50681;53.334;-6.536;2023-12-07T09:08:03;98744.59;;;16.09;100.00
64354;BME280;50681;53.334;-6.536;2023-12-07T09:10:28;98736.84;;;16.11;100.00
64354;BME280;50681;53.334;-6.536;2023-12-07T09:12:53;98723.78;;;15.94;100.00
64354;BME280;50681;53.334;-6.536;2023-12-07T09:15:19;98730.47;;;16.00;100.00
64354;BME280;50681;53.334;-6.536;2023-12-07T09:17:45;98726.97;;;15.99;100.00
64354;BME280;50681;53.334;-6.536;2023-12-07T09:20:11;98700.34;;;15.85;100.00
64354;BME280;50681;53.334;-6.536;2023-12-07T09:22:43;98702.03;;;15.97;100.00
64354;BME280;50681;53.334;-6.536;2023-12-07T09:25:09;98688.75;;;15.89;100.00
64354;BME280;50681;53.334;-6.536;2023-12-07T09:27:35;98690.38;;;15.97;100.00
64354;BME280;50681;53.334;-6.536;2023-12-07T09:30:04;98680.00;;;16.06;100.00
64354;BME280;50681;53.334;-6.536;2023-12-07T09:32:30;98669.03;;;15.99;100.00
64354;BME280;50681;53.334;-6.536;2023-12-07T09:34:55;98657.75;;;16.00;100.00
64354;BME280;50681;53.334;-6.536;2023-12-07T09:37:20;98647.66;;;16.01;100.00
64354;BME280;50681;53.334;-6.536;2023-12-07T09:39:46;98649.22;;;16.02;100.00
64354;BME280;50681;53.334;-6.536;2023-12-07T09:42:11;98641.72;;;15.88;100.00
64354;BME280;50681;53.334;-6.536;2023-12-07T09:44:37;98645.38;;;16.07;100.00
64354;BME280;50681;53.334;-6.536;2023-12-07T09:47:02;98631.03;;;16.10;100.00
64354;BME280;50681;53.334;-6.536;2023-12-07T09:49:29;98645.53;;;16.21;100.00
64354;BME280;50681;53.334;-6.536;2023-12-07T09:51:56;98629.22;;;16.25;100.00
64354;BME280;50681;53.334;-6.536;2023-12-07T09:54:22;98612.78;;;16.14;100.00
64354;BME280;50681;53.334;-6.536;2023-12-07T09:56:47;98611.75;;;16.29;100.00
64354;BME280;50681;53.334;-6.536;2023-12-07T09:59:13;98595.63;;;16.10;100.00
64354;BME280;50681;53.334;-6.536;2023-12-07T10:01:38;98596.38;;;16.07;100.00
64354;BME280;50681;53.334;-6.536;2023-12-07T10:04:17;98601.28;;;16.31;100.00
64354;BME280;50681;53.334;-6.536;2023-12-07T10:06:43;98594.13;;;16.12;100.00
64354;BME280;50681;53.334;-6.536;2023-12-07T10:09:16;98612.09;;;16.24;100.00
64354;BME280;50681;53.334;-6.536;2023-12-07T10:11:44;98606.66;;;16.24;100.00
64354;BME280;50681;53.334;-6.536;2023-12-07T10:14:10;98598.19;;;16.37;100.00
64354;BME280;50681;53.334;-6.536;2023-12-07T10:16:36;98601.41;;;16.46;100.00
64354;BME280;50681;53.334;-6.536;2023-12-07T10:19:17;98605.38;;;16.59;100.00
64354;BME280;50681;53.334;-6.536;2023-12-07T10:21:47;98598.72;;;16.50;100.00
64354;BME280;50681;53.334;-6.536;2023-12-07T10:24:13;98603.38;;;16.49;100.00
64354;BME280;50681;53.334;-6.536;2023-12-07T10:26:39;98601.50;;;16.57;100.00
64354;BME280;50681;53.334;-6.536;2023-12-07T10:29:05;98592.16;;;16.61;100.00
64354;BME280;50681;53.334;-6.536;2023-12-07T10:31:31;98583.69;;;16.74;100.00
64354;BME280;50681;53.334;-6.536;2023-12-07T10:33:58;98586.91;;;16.90;100.00
64354;BME280;50681;53.334;-6.536;2023-12-07T10:36:25;98593.47;;;16.79;100.00
64354;BME280;50681;53.334;-6.536;2023-12-07T10:38:51;98579.91;;;16.89;100.00
64354;BME280;50681;53.334;-6.536;2023-12-07T10:41:18;98574.97;;;17.02;100.00
64354;BME280;50681;53.334;-6.536;2023-12-07T10:43:48;98573.41;;;17.05;100.00
64354;BME280;50681;53.334;-6.536;2023-12-07T10:46:15;98565.88;;;16.87;100.00
64354;BME280;50681;53.334;-6.536;2023-12-07T10:48:45;98557.00;;;16.98;100.00
64354;BME280;50681;53.334;-6.536;2023-12-07T10:51:18;98559.31;;;16.96;100.00
64354;BME280;50681;53.334;-6.536;2023-12-07T10:53:48;98554.59;;;16.93;100.00
64354;BME280;50681;53.334;-6.536;2023-12-07T10:56:24;98537.06;;;16.86;100.00
64354;BME280;50681;53.334;-6.536;2023-12-07T10:58:55;98544.09;;;16.95;100.00
64354;BME280;50681;53.334;-6.536;2023-12-07T11:01:23;98546.44;;;16.93;100.00
64354;BME280;50681;53.334;-6.536;2023-12-07T11:03:52;98551.59;;;17.01;100.00
64354;BME280;50681;53.334;-6.536;2023-12-07T11:06:19;98540.22;;;16.92;100.00
64354;BME280;50681;53.334;-6.536;2023-12-07T11:08:49;98525.56;;;17.22;100.00
64354;BME280;50681;53.334;-6.536;2023-12-07T11:14:02;98519.28;;;17.14;100.00
64354;BME280;50681;53.334;-6.536;2023-12-07T11:16:29;98500.94;;;17.04;100.00
64354;BME280;50681;53.334;-6.536;2023-12-07T11:19:54;98471.75;;;17.04;100.00
64354;BME280;50681;53.334;-6.536;2023-12-07T11:22:19;98490.38;;;16.95;100.00
64354;BME280;50681;53.334;-6.536;2023-12-07T11:24:52;98481.88;;;17.04;100.00
64354;BME280;50681;53.334;-6.536;2023-12-07T11:27:18;98479.38;;;16.77;100.00
64354;BME280;50681;53.334;-6.536;2023-12-07T11:29:46;98473.13;;;16.73;100.00
64354;BME280;50681;53.334;-6.536;2023-12-07T11:32:13;98454.88;;;16.84;100.00
64354;BME280;50681;53.334;-6.536;2023-12-07T11:34:41;98471.59;;;16.79;100.00
64354;BME280;50681;53.334;-6.536;2023-12-07T11:37:07;98468.13;;;16.79;100.00
64354;BME280;50681;53.334;-6.536;2023-12-07T11:39:40;98468.59;;;16.99;100.00
64354;BME280;50681;53.334;-6.536;2023-12-07T11:42:15;98445.19;;;16.87;100.00
64354;BME280;50681;53.334;-6.536;2023-12-07T11:44:41;98432.72;;;16.89;100.00
64354;BME280;50681;53.334;-6.536;2023-12-07T11:47:08;98422.56;;;16.83;100.00
64354;BME280;50681;53.334;-6.536;2023-12-07T11:49:34;98424.88;;;16.77;100.00
64354;BME280;50681;53.334;-6.536;2023-12-07T11:52:01;98410.91;;;16.86;100.00
64354;BME280;50681;53.334;-6.536;2023-12-07T11:54:37;98413.25;;;16.95;100.00
64354;BME280;50681;53.334;-6.536;2023-12-07T11:57:03;98404.31;;;16.94;100.00
64354;BME280;50681;53.334;-6.536;2023-12-07T11:59:28;98394.50;;;16.71;100.00
64354;BME280;50681;53.334;-6.536;2023-12-07T12:01:54;98387.53;;;16.81;100.00
64354;BME280;50681;53.334;-6.536;2023-12-07T12:04:21;98389.50;;;16.92;100.00
64354;BME280;50681;53.334;-6.536;2023-12-07T12:06:47;98391.34;;;16.66;100.00
64354;BME280;50681;53.334;-6.536;2023-12-07T12:09:13;98346.25;;;16.75;100.00
64354;BME280;50681;53.334;-6.536;2023-12-07T12:11:48;98336.13;;;16.80;100.00
64354;BME280;50681;53.334;-6.536;2023-12-07T12:16:00;98332.22;;;16.77;100.00
64354;BME280;50681;53.334;-6.536;2023-12-07T12:18:26;98339.25;;;16.82;100.00
64354;BME280;50681;53.334;-6.536;2023-12-07T12:20:53;98325.66;;;16.93;100.00
64354;BME280;50681;53.334;-6.536;2023-12-07T12:23:19;98335.81;;;17.03;100.00
64354;BME280;50681;53.334;-6.536;2023-12-07T12:25:45;98344.75;;;17.00;100.00
64354;BME280;50681;53.334;-6.536;2023-12-07T12:28:11;98337.00;;;16.98;100.00
64354;BME280;50681;53.334;-6.536;2023-12-07T12:30:41;98337.38;;;16.97;100.00
64354;BME280;50681;53.334;-6.536;2023-12-07T12:33:07;98355.63;;;16.93;100.00
64354;BME280;50681;53.334;-6.536;2023-12-07T12:35:33;98348.63;;;16.95;100.00
64354;BME280;50681;53.334;-6.536;2023-12-07T12:37:58;98359.09;;;16.82;100.00
64354;BME280;50681;53.334;-6.536;2023-12-07T12:40:27;98358.78;;;17.02;100.00
64354;BME280;50681;53.334;-6.536;2023-12-07T12:42:54;98371.97;;;16.93;100.00